sensor_id;sensor_type;location;lat;lon;timestamp;pressure;altitude;pressure_sealevel;temperature;humidity
57094;BME280;42970;50.996;3.706;2022-09-09T00:00:46;75742.97;;;-146.65;99.83
57094;BME280;42970;50.996;3.706;2022-09-09T00:03:24;75720.78;;;-146.65;99.84
57094;BME280;42970;50.996;3.706;2022-09-09T00:06:24;75724.81;;;-146.65;98.94
57094;BME280;42970;50.996;3.706;2022-09-09T00:09:11;75722.81;;;-146.65;99.20
57094;BME280;42970;50.996;3.706;2022-09-09T00:11:48;75720.78;;;-146.65;99.37
57094;BME280;42970;50.996;3.706;2022-09-09T00:14:48;75716.75;;;-146.65;98.96
57094;BME280;42970;50.996;3.706;2022-09-09T00:20:05;75714.75;;;-146.65;99.21
57094;BME280;42970;50.996;3.706;2022-09-09T00:22:36;75720.78;;;-146.65;99.11
57094;BME280;42970;50.996;3.706;2022-09-09T00:25:15;75728.88;;;-146.65;99.18
57094;BME280;42970;50.996;3.706;2022-09-09T00:27:48;75720.78;;;-146.65;99.05
57094;BME280;42970;50.996;3.706;2022-09-09T00:30:25;75730.88;;;-146.65;99.12
57094;BME280;42970;50.996;3.706;2022-09-09T00:32:53;75736.94;;;-146.65;99.53
57094;BME280;42970;50.996;3.706;2022-09-09T00:37:50;75738.94;;;-146.65;100.00
57094;BME280;42970;50.996;3.706;2022-09-09T00:40:24;75742.97;;;-146.65;100.00
57094;BME280;42970;50.996;3.706;2022-09-09T00:43:00;75742.97;;;-146.65;100.00
57094;BME280;42970;50.996;3.706;2022-09-09T00:47:54;75736.94;;;-146.65;100.00
57094;BME280;42970;50.996;3.706;2022-09-09T00:50:29;75728.88;;;-146.65;100.00
57094;BME280;42970;50.996;3.706;2022-09-09T00:53:05;75718.78;;;-146.65;100.00
57094;BME280;42970;50.996;3.706;2022-09-09T00:57:59;75712.72;;;-146.65;99.64
57094;BME280;42970;50.996;3.706;2022-09-09T01:00:26;75708.69;;;-146.65;99.66
57094;BME280;42970;50.996;3.706;2022-09-09T01:08:11;75702.63;;;-146.65;98.89
57094;BME280;42970;50.996;3.706;2022-09-09T01:10:41;75698.59;;;-146.65;98.91
57094;BME280;42970;50.996;3.706;2022-09-09T01:13:16;75686.50;;;-146.65;98.23
57094;BME280;42970;50.996;3.706;2022-09-09T01:15:45;75690.53;;;-146.65;98.06
57094;BME280;42970;50.996;3.706;2022-09-09T01:18:12;75688.53;;;-146.65;97.96
57094;BME280;42970;50.996;3.706;2022-09-09T01:20:43;75692.56;;;-146.65;98.16
57094;BME280;42970;50.996;3.706;2022-09-09T01:28:21;75694.56;;;-146.65;98.36
57094;BME280;42970;50.996;3.706;2022-09-09T01:30:47;75688.53;;;-146.65;97.92
57094;BME280;42970;50.996;3.706;2022-09-09T01:33:16;75686.50;;;-146.65;97.92
57094;BME280;42970;50.996;3.706;2022-09-09T01:36:19;75684.50;;;-146.65;98.02
57094;BME280;42970;50.996;3.706;2022-09-09T01:38:46;75690.53;;;-146.65;98.07
57094;BME280;42970;50.996;3.706;2022-09-09T01:41:11;75694.56;;;-146.65;98.19
57094;BME280;42970;50.996;3.706;2022-09-09T01:43:37;75694.56;;;-146.65;98.14
57094;BME280;42970;50.996;3.706;2022-09-09T01:46:02;75698.59;;;-146.65;98.24
57094;BME280;42970;50.996;3.706;2022-09-09T01:48:28;75694.56;;;-146.65;98.14
57094;BME280;42970;50.996;3.706;2022-09-09T01:50:54;75700.63;;;-146.65;98.32
57094;BME280;42970;50.996;3.706;2022-09-09T01:53:20;75698.59;;;-146.65;98.35
57094;BME280;42970;50.996;3.706;2022-09-09T01:55:52;75690.53;;;-146.65;98.69
57094;BME280;42970;50.996;3.706;2022-09-09T02:03:32;75680.44;;;-146.65;98.64
57094;BME280;42970;50.996;3.706;2022-09-09T02:06:05;75686.50;;;-146.65;98.56
57094;BME280;42970;50.996;3.706;2022-09-09T02:08:36;75662.31;;;-146.65;98.26
57094;BME280;42970;50.996;3.706;2022-09-09T02:11:06;75662.31;;;-146.65;97.91
57094;BME280;42970;50.996;3.706;2022-09-09T02:13:32;75654.22;;;-146.65;97.67
57094;BME280;42970;50.996;3.706;2022-09-09T02:21:16;75650.19;;;-146.65;98.09
57094;BME280;42970;50.996;3.706;2022-09-09T02:23:43;75646.16;;;-146.65;97.91
57094;BME280;42970;50.996;3.706;2022-09-09T02:26:11;75648.19;;;-146.65;97.82
57094;BME280;42970;50.996;3.706;2022-09-09T02:28:40;75636.06;;;-146.65;97.49
57094;BME280;42970;50.996;3.706;2022-09-09T02:31:07;75630.03;;;-146.65;97.70
57094;BME280;42970;50.996;3.706;2022-09-09T02:33:42;75621.97;;;-146.65;97.37
57094;BME280;42970;50.996;3.706;2022-09-09T02:36:10;75628.00;;;-146.65;97.40
57094;BME280;42970;50.996;3.706;2022-09-09T02:38:41;75621.97;;;-146.65;97.27
57094;BME280;42970;50.996;3.706;2022-09-09T02:41:08;75630.03;;;-146.65;97.69
57094;BME280;42970;50.996;3.706;2022-09-09T02:43:34;75634.06;;;-146.65;97.84
57094;BME280;42970;50.996;3.706;2022-09-09T02:48:55;75628.00;;;-146.65;97.56
57094;BME280;42970;50.996;3.706;2022-09-09T02:51:55;75623.97;;;-146.65;96.92
57094;BME280;42970;50.996;3.706;2022-09-09T02:54:30;75617.94;;;-146.65;97.04
57094;BME280;42970;50.996;3.706;2022-09-09T02:57:03;75615.91;;;-146.65;96.63
57094;BME280;42970;50.996;3.706;2022-09-09T02:59:31;75603.81;;;-146.65;96.40
57094;BME280;42970;50.996;3.706;2022-09-09T03:01:56;75611.88;;;-146.65;96.43
57094;BME280;42970;50.996;3.706;2022-09-09T03:04:21;75601.78;;;-146.65;96.17
57094;BME280;42970;50.996;3.706;2022-09-09T03:06:47;75601.78;;;-146.65;96.45
57094;BME280;42970;50.996;3.706;2022-09-09T03:09:12;75593.72;;;-146.65;96.24
57094;BME280;42970;50.996;3.706;2022-09-09T03:11:38;75591.69;;;-146.65;95.95
57094;BME280;42970;50.996;3.706;2022-09-09T03:14:04;75585.66;;;-146.65;95.53
57094;BME280;42970;50.996;3.706;2022-09-09T03:16:29;75593.72;;;-146.65;95.70
57094;BME280;42970;50.996;3.706;2022-09-09T03:18:55;75597.75;;;-146.65;95.69
57094;BME280;42970;50.996;3.706;2022-09-09T03:21:20;75589.69;;;-146.65;95.77
57094;BME280;42970;50.996;3.706;2022-09-09T03:23:46;75593.72;;;-146.65;95.63
57094;BME280;42970;50.996;3.706;2022-09-09T03:26:12;75591.69;;;-146.65;95.62
57094;BME280;42970;50.996;3.706;2022-09-09T03:28:39;75589.69;;;-146.65;95.70
57094;BME280;42970;50.996;3.706;2022-09-09T03:31:05;75581.63;;;-146.65;94.92
57094;BME280;42970;50.996;3.706;2022-09-09T03:33:31;75569.50;;;-146.65;94.83
57094;BME280;42970;50.996;3.706;2022-09-09T03:35:57;75565.47;;;-146.65;94.77
57094;BME280;42970;50.996;3.706;2022-09-09T03:38:25;75561.44;;;-146.65;94.34
57094;BME280;42970;50.996;3.706;2022-09-09T03:40:52;75547.31;;;-146.65;94.05
57094;BME280;42970;50.996;3.706;2022-09-09T03:43:20;75541.28;;;-146.65;93.59
57094;BME280;42970;50.996;3.706;2022-09-09T03:45:46;75545.31;;;-146.65;93.76
57094;BME280;42970;50.996;3.706;2022-09-09T03:48:16;75551.34;;;-146.65;93.95
57094;BME280;42970;50.996;3.706;2022-09-09T03:50:46;75553.38;;;-146.65;94.62
57094;BME280;42970;50.996;3.706;2022-09-09T03:53:11;75557.41;;;-146.65;94.61
57094;BME280;42970;50.996;3.706;2022-09-09T03:55:37;75547.31;;;-146.65;94.00
57094;BME280;42970;50.996;3.706;2022-09-09T03:58:02;75547.31;;;-146.65;93.80
57094;BME280;42970;50.996;3.706;2022-09-09T04:00:28;75541.28;;;-146.65;93.45
57094;BME280;42970;50.996;3.706;2022-09-09T04:02:55;75541.28;;;-146.65;93.68
57094;BME280;42970;50.996;3.706;2022-09-09T04:05:22;75545.31;;;-146.65;93.70
57094;BME280;42970;50.996;3.706;2022-09-09T04:07:48;75541.28;;;-146.65;94.14
57094;BME280;42970;50.996;3.706;2022-09-09T04:10:14;75547.31;;;-146.65;93.90
57094;BME280;42970;50.996;3.706;2022-09-09T04:12:41;75545.31;;;-146.65;94.11
57094;BME280;42970;50.996;3.706;2022-09-09T04:15:06;75543.28;;;-146.65;93.65
57094;BME280;42970;50.996;3.706;2022-09-09T04:17:32;75537.25;;;-146.65;93.92
57094;BME280;42970;50.996;3.706;2022-09-09T04:19:58;75533.22;;;-146.65;94.17
57094;BME280;42970;50.996;3.706;2022-09-09T04:22:23;75531.19;;;-146.65;93.95
57094;BME280;42970;50.996;3.706;2022-09-09T04:24:49;75527.16;;;-146.65;93.60
57094;BME280;42970;50.996;3.706;2022-09-09T04:27:14;75533.22;;;-146.65;94.09
57094;BME280;42970;50.996;3.706;2022-09-09T04:29:40;75531.19;;;-146.65;93.67
57094;BME280;42970;50.996;3.706;2022-09-09T04:32:05;75529.16;;;-146.65;93.75
57094;BME280;42970;50.996;3.706;2022-09-09T04:34:30;75529.16;;;-146.65;93.30
57094;BME280;42970;50.996;3.706;2022-09-09T04:36:56;75525.13;;;-146.65;93.06
57094;BME280;42970;50.996;3.706;2022-09-09T04:39:22;75517.06;;;-146.65;93.21
57094;BME280;42970;50.996;3.706;2022-09-09T04:41:47;75517.06;;;-146.65;93.18
57094;BME280;42970;50.996;3.706;2022-09-09T04:44:13;75525.13;;;-146.65;93.58
57094;BME280;42970;50.996;3.706;2022-09-09T04:46:39;75517.06;;;-146.65;93.47
57094;BME280;42970;50.996;3.706;2022-09-09T04:49:05;75513.03;;;-146.65;93.44
57094;BME280;42970;50.996;3.706;2022-09-09T04:51:31;75517.06;;;-146.65;93.57
57094;BME280;42970;50.996;3.706;2022-09-09T04:53:56;75525.13;;;-146.65;93.72
57094;BME280;42970;50.996;3.706;2022-09-09T04:56:22;75527.16;;;-146.65;94.07
57094;BME280;42970;50.996;3.706;2022-09-09T04:58:47;75535.22;;;-146.65;93.87
57094;BME280;42970;50.996;3.706;2022-09-09T05:03:40;75523.13;;;-146.65;93.71
57094;BME280;42970;50.996;3.706;2022-09-09T05:06:10;75519.09;;;-146.65;93.40
57094;BME280;42970;50.996;3.706;2022-09-09T05:08:40;75513.03;;;-146.65;93.41
57094;BME280;42970;50.996;3.706;2022-09-09T05:11:22;75504.97;;;-146.65;93.37
57094;BME280;42970;50.996;3.706;2022-09-09T05:13:49;75500.94;;;-146.65;93.39
57094;BME280;42970;50.996;3.706;2022-09-09T05:16:16;75498.91;;;-146.65;93.10
57094;BME280;42970;50.996;3.706;2022-09-09T05:18:42;75500.94;;;-146.65;93.44
57094;BME280;42970;50.996;3.706;2022-09-09T05:21:09;75500.94;;;-146.65;93.37
57094;BME280;42970;50.996;3.706;2022-09-09T05:23:34;75490.84;;;-146.65;92.64
57094;BME280;42970;50.996;3.706;2022-09-09T05:26:00;75494.88;;;-146.65;92.68
57094;BME280;42970;50.996;3.706;2022-09-09T05:28:26;75490.84;;;-146.65;92.79
57094;BME280;42970;50.996;3.706;2022-09-09T05:30:58;75496.91;;;-146.65;92.91
57094;BME280;42970;50.996;3.706;2022-09-09T05:33:25;75494.88;;;-146.65;93.04
57094;BME280;42970;50.996;3.706;2022-09-09T05:36:05;75490.84;;;-146.65;92.99
57094;BME280;42970;50.996;3.706;2022-09-09T05:38:31;75492.88;;;-146.65;92.94
57094;BME280;42970;50.996;3.706;2022-09-09T05:40:58;75488.84;;;-146.65;93.07
57094;BME280;42970;50.996;3.706;2022-09-09T05:43:33;75480.75;;;-146.65;92.66
57094;BME280;42970;50.996;3.706;2022-09-09T05:46:07;75478.75;;;-146.65;92.36
57094;BME280;42970;50.996;3.706;2022-09-09T05:48:37;75476.72;;;-146.65;92.88
57094;BME280;42970;50.996;3.706;2022-09-09T05:51:04;75480.75;;;-146.65;94.17
57094;BME280;42970;50.996;3.706;2022-09-09T05:53:33;75486.81;;;-146.65;94.67
57094;BME280;42970;50.996;3.706;2022-09-09T05:56:11;75492.88;;;-146.65;94.57
57094;BME280;42970;50.996;3.706;2022-09-09T05:58:38;75492.88;;;-146.65;94.02
57094;BME280;42970;50.996;3.706;2022-09-09T06:01:11;75482.78;;;-146.65;94.27
57094;BME280;42970;50.996;3.706;2022-09-09T06:03:39;75488.84;;;-146.65;93.92
57094;BME280;42970;50.996;3.706;2022-09-09T06:06:05;75486.81;;;-146.65;94.04
57094;BME280;42970;50.996;3.706;2022-09-09T06:08:32;75500.94;;;-146.65;94.35
57094;BME280;42970;50.996;3.706;2022-09-09T06:11:01;75507.00;;;-146.65;96.06
57094;BME280;42970;50.996;3.706;2022-09-09T06:13:27;75515.06;;;-146.65;97.64
57094;BME280;42970;50.996;3.706;2022-09-09T06:15:53;75529.16;;;-146.65;97.89
57094;BME280;42970;50.996;3.706;2022-09-09T06:18:18;75541.28;;;-146.65;98.79
57094;BME280;42970;50.996;3.706;2022-09-09T06:20:54;75541.28;;;-146.65;99.91
57094;BME280;42970;50.996;3.706;2022-09-09T06:23:19;75547.31;;;-146.65;100.00
57094;BME280;42970;50.996;3.706;2022-09-09T06:25:45;75549.34;;;-146.65;100.00
57094;BME280;42970;50.996;3.706;2022-09-09T06:28:11;75531.19;;;-146.65;100.00
57094;BME280;42970;50.996;3.706;2022-09-09T06:30:36;75525.13;;;-146.65;100.00
57094;BME280;42970;50.996;3.706;2022-09-09T06:33:02;75511.03;;;-146.65;100.00
57094;BME280;42970;50.996;3.706;2022-09-09T06:35:27;75509.00;;;-146.65;99.96
57094;BME280;42970;50.996;3.706;2022-09-09T06:37:53;75496.91;;;-146.65;99.83
57094;BME280;42970;50.996;3.706;2022-09-09T06:40:18;75484.78;;;-146.65;99.03
57094;BME280;42970;50.996;3.706;2022-09-09T06:42:43;75472.69;;;-146.65;98.46
57094;BME280;42970;50.996;3.706;2022-09-09T06:45:09;75466.66;;;-146.65;97.37
57094;BME280;42970;50.996;3.706;2022-09-09T06:47:35;75446.47;;;-146.65;97.71
57094;BME280;42970;50.996;3.706;2022-09-09T06:50:00;75446.47;;;-146.65;97.01
57094;BME280;42970;50.996;3.706;2022-09-09T06:52:25;75442.44;;;-146.65;96.23
57094;BME280;42970;50.996;3.706;2022-09-09T06:54:51;75420.25;;;-146.65;96.16
57094;BME280;42970;50.996;3.706;2022-09-09T06:57:16;75416.22;;;-146.65;95.48
57094;BME280;42970;50.996;3.706;2022-09-09T06:59:41;75420.25;;;-146.65;94.98
57094;BME280;42970;50.996;3.706;2022-09-09T07:02:07;75408.16;;;-146.65;94.35
57094;BME280;42970;50.996;3.706;2022-09-09T07:04:33;75408.16;;;-146.65;93.87
57094;BME280;42970;50.996;3.706;2022-09-09T07:06:58;75410.16;;;-146.65;93.93
57094;BME280;42970;50.996;3.706;2022-09-09T07:09:24;75402.09;;;-146.65;94.03
57094;BME280;42970;50.996;3.706;2022-09-09T07:11:50;75404.13;;;-146.65;94.26
57094;BME280;42970;50.996;3.706;2022-09-09T07:14:17;75416.22;;;-146.65;94.21
57094;BME280;42970;50.996;3.706;2022-09-09T07:16:43;75432.34;;;-146.65;94.31
57094;BME280;42970;50.996;3.706;2022-09-09T07:19:09;75396.06;;;-146.65;93.89
57094;BME280;42970;50.996;3.706;2022-09-09T07:21:34;75385.97;;;-146.65;93.35
57094;BME280;42970;50.996;3.706;2022-09-09T07:24:00;75369.84;;;-146.65;93.00
57094;BME280;42970;50.996;3.706;2022-09-09T07:26:27;75335.53;;;-146.65;92.97
57094;BME280;42970;50.996;3.706;2022-09-09T07:28:52;75347.66;;;-146.65;92.72
57094;BME280;42970;50.996;3.706;2022-09-09T07:31:19;75339.56;;;-146.65;91.91
57094;BME280;42970;50.996;3.706;2022-09-09T07:33:45;75343.59;;;-146.65;92.14
57094;BME280;42970;50.996;3.706;2022-09-09T07:36:21;75343.59;;;-146.65;91.94
57094;BME280;42970;50.996;3.706;2022-09-09T07:38:47;75335.53;;;-146.65;92.09
57094;BME280;42970;50.996;3.706;2022-09-09T07:41:17;75327.47;;;-146.65;91.32
57094;BME280;42970;50.996;3.706;2022-09-09T07:43:44;75327.47;;;-146.65;91.07
57094;BME280;42970;50.996;3.706;2022-09-09T07:46:10;75327.47;;;-146.65;91.77
57094;BME280;42970;50.996;3.706;2022-09-09T07:48:36;75327.47;;;-146.65;92.04
57094;BME280;42970;50.996;3.706;2022-09-09T07:51:09;75335.53;;;-146.65;92.39
57094;BME280;42970;50.996;3.706;2022-09-09T07:53:36;75361.75;;;-146.65;92.95
57094;BME280;42970;50.996;3.706;2022-09-09T07:56:03;75390.00;;;-146.65;93.93
57094;BME280;42970;50.996;3.706;2022-09-09T07:58:29;75416.22;;;-146.65;94.85
57094;BME280;42970;50.996;3.706;2022-09-09T08:00:54;75426.31;;;-146.65;96.64
57094;BME280;42970;50.996;3.706;2022-09-09T08:03:19;75440.44;;;-146.65;97.62
57094;BME280;42970;50.996;3.706;2022-09-09T08:05:47;75448.50;;;-146.65;97.95
57094;BME280;42970;50.996;3.706;2022-09-09T08:08:12;75452.53;;;-146.65;98.19
57094;BME280;42970;50.996;3.706;2022-09-09T08:10:37;75464.63;;;-146.65;98.11
57094;BME280;42970;50.996;3.706;2022-09-09T08:13:02;75466.66;;;-146.65;97.81
57094;BME280;42970;50.996;3.706;2022-09-09T08:15:28;75456.56;;;-146.65;97.90
57094;BME280;42970;50.996;3.706;2022-09-09T08:17:55;75456.56;;;-146.65;97.79
57094;BME280;42970;50.996;3.706;2022-09-09T08:20:21;75452.53;;;-146.65;97.20
57094;BME280;42970;50.996;3.706;2022-09-09T08:22:48;75452.53;;;-146.65;98.13
57094;BME280;42970;50.996;3.706;2022-09-09T08:25:15;75448.50;;;-146.65;97.25
57094;BME280;42970;50.996;3.706;2022-09-09T08:27:40;75450.50;;;-146.65;96.33
57094;BME280;42970;50.996;3.706;2022-09-09T08:30:05;75438.41;;;-146.65;96.30
57094;BME280;42970;50.996;3.706;2022-09-09T08:32:31;75446.47;;;-146.65;95.79
57094;BME280;42970;50.996;3.706;2022-09-09T08:34:56;75442.44;;;-146.65;95.13
57094;BME280;42970;50.996;3.706;2022-09-09T08:37:22;75426.31;;;-146.65;95.00
57094;BME280;42970;50.996;3.706;2022-09-09T08:39:47;75428.31;;;-146.65;94.66
57094;BME280;42970;50.996;3.706;2022-09-09T08:50:12;75412.19;;;-146.65;94.40
57094;BME280;42970;50.996;3.706;2022-09-09T08:52:41;75412.19;;;-146.65;93.46
57094;BME280;42970;50.996;3.706;2022-09-09T08:55:24;75414.19;;;-146.65;93.41
57094;BME280;42970;50.996;3.706;2022-09-09T08:57:52;75412.19;;;-146.65;92.89
57094;BME280;42970;50.996;3.706;2022-09-09T09:00:19;75412.19;;;-146.65;92.77
57094;BME280;42970;50.996;3.706;2022-09-09T09:11:12;75406.13;;;-146.65;91.82
57094;BME280;42970;50.996;3.706;2022-09-09T09:16:32;75375.88;;;-146.65;90.39
57094;BME280;42970;50.996;3.706;2022-09-09T09:19:00;75367.81;;;-146.65;90.26
57094;BME280;42970;50.996;3.706;2022-09-09T09:23:59;75311.34;;;-146.65;89.00
57094;BME280;42970;50.996;3.706;2022-09-09T09:26:34;75309.31;;;-146.65;88.27
57094;BME280;42970;50.996;3.706;2022-09-09T09:29:11;75293.19;;;-146.65;88.70
57094;BME280;42970;50.996;3.706;2022-09-09T09:31:37;75275.03;;;-146.65;87.24
57094;BME280;42970;50.996;3.706;2022-09-09T09:34:02;75283.09;;;-146.65;87.52
57094;BME280;42970;50.996;3.706;2022-09-09T09:36:40;75279.06;;;-146.65;87.17
57094;BME280;42970;50.996;3.706;2022-09-09T09:39:07;75299.25;;;-146.65;86.95
57094;BME280;42970;50.996;3.706;2022-09-09T09:41:41;75309.31;;;-146.65;87.65
57094;BME280;42970;50.996;3.706;2022-09-09T09:44:25;75321.41;;;-146.65;88.28
57094;BME280;42970;50.996;3.706;2022-09-09T09:46:52;75307.31;;;-146.65;88.28
57094;BME280;42970;50.996;3.706;2022-09-09T09:49:18;75307.31;;;-146.65;87.80
57094;BME280;42970;50.996;3.706;2022-09-09T09:51:44;75291.16;;;-146.65;87.66
57094;BME280;42970;50.996;3.706;2022-09-09T09:56:39;75299.25;;;-146.65;87.54
57094;BME280;42970;50.996;3.706;2022-09-09T09:59:05;75281.09;;;-146.65;86.58
57094;BME280;42970;50.996;3.706;2022-09-09T10:01:32;75293.19;;;-146.65;87.17
57094;BME280;42970;50.996;3.706;2022-09-09T10:04:00;75293.19;;;-146.65;86.56
57094;BME280;42970;50.996;3.706;2022-09-09T10:06:34;75297.22;;;-146.65;85.96
57094;BME280;42970;50.996;3.706;2022-09-09T10:09:03;75293.19;;;-146.65;86.31
57094;BME280;42970;50.996;3.706;2022-09-09T10:11:51;75275.03;;;-146.65;86.46
57094;BME280;42970;50.996;3.706;2022-09-09T10:14:19;75305.28;;;-146.65;85.75
57094;BME280;42970;50.996;3.706;2022-09-09T10:21:56;75295.19;;;-146.65;86.18
57094;BME280;42970;50.996;3.706;2022-09-09T10:29:23;75305.28;;;-146.65;85.36
57094;BME280;42970;50.996;3.706;2022-09-09T10:37:16;75266.97;;;-146.65;83.80
57094;BME280;42970;50.996;3.706;2022-09-09T10:39:50;75262.94;;;-146.65;83.56
57094;BME280;42970;50.996;3.706;2022-09-09T10:42:27;75220.56;;;-146.65;83.02
57094;BME280;42970;50.996;3.706;2022-09-09T10:50:38;75198.38;;;-146.65;82.09
57094;BME280;42970;50.996;3.706;2022-09-09T10:56:10;75206.47;;;-146.65;82.22
57094;BME280;42970;50.996;3.706;2022-09-09T10:59:06;75232.69;;;-146.65;81.24
57094;BME280;42970;50.996;3.706;2022-09-09T11:04:48;75232.69;;;-146.65;81.43
57094;BME280;42970;50.996;3.706;2022-09-09T11:07:40;75234.69;;;-146.65;81.88
57094;BME280;42970;50.996;3.706;2022-09-09T11:10:38;75162.09;;;-146.65;79.24
57094;BME280;42970;50.996;3.706;2022-09-09T11:13:11;75129.81;;;-146.65;77.92
57094;BME280;42970;50.996;3.706;2022-09-09T11:15:48;75097.56;;;-146.65;78.11
57094;BME280;42970;50.996;3.706;2022-09-09T11:18:20;75103.59;;;-146.65;76.22
57094;BME280;42970;50.996;3.706;2022-09-09T11:20:53;75099.56;;;-146.65;75.81
57094;BME280;42970;50.996;3.706;2022-09-09T11:23:42;75077.38;;;-146.65;75.38
57094;BME280;42970;50.996;3.706;2022-09-09T11:26:16;74946.28;;;-146.65;72.74
57094;BME280;42970;50.996;3.706;2022-09-09T11:31:46;74686.13;;;-146.65;64.63
57094;BME280;42970;50.996;3.706;2022-09-09T11:34:44;74948.31;;;-146.65;69.50
57094;BME280;42970;50.996;3.706;2022-09-09T11:40:23;74754.69;;;-146.65;65.23
57094;BME280;42970;50.996;3.706;2022-09-09T11:43:02;74918.06;;;-146.65;67.99
57094;BME280;42970;50.996;3.706;2022-09-09T11:45:29;75004.78;;;-146.65;71.12
57094;BME280;42970;50.996;3.706;2022-09-09T11:48:00;75053.19;;;-146.65;73.53
57094;BME280;42970;50.996;3.706;2022-09-09T11:52:51;75069.31;;;-146.65;73.97
57094;BME280;42970;50.996;3.706;2022-09-09T11:55:33;75047.13;;;-146.65;74.44
57094;BME280;42970;50.996;3.706;2022-09-09T11:58:04;75000.75;;;-146.65;73.85
57094;BME280;42970;50.996;3.706;2022-09-09T12:02:58;74984.59;;;-146.65;71.73
57094;BME280;42970;50.996;3.706;2022-09-09T12:05:36;74978.56;;;-146.65;70.62
57094;BME280;42970;50.996;3.706;2022-09-09T12:08:04;74849.50;;;-146.65;68.44
57094;BME280;42970;50.996;3.706;2022-09-09T12:10:34;74968.47;;;-146.65;69.69
57094;BME280;42970;50.996;3.706;2022-09-09T12:13:21;74920.06;;;-146.65;70.98
57094;BME280;42970;50.996;3.706;2022-09-09T12:15:52;74871.66;;;-146.65;67.15
57094;BME280;42970;50.996;3.706;2022-09-09T12:18:36;74938.22;;;-146.65;71.67
57094;BME280;42970;50.996;3.706;2022-09-09T12:21:11;74952.34;;;-146.65;70.89
57094;BME280;42970;50.996;3.706;2022-09-09T12:23:45;74553.03;;;-146.65;60.95
57094;BME280;42970;50.996;3.706;2022-09-09T12:26:19;74805.13;;;-146.65;64.76
57094;BME280;42970;50.996;3.706;2022-09-09T12:34:17;74676.06;;;-146.65;62.54
57094;BME280;42970;50.996;3.706;2022-09-09T12:36:52;74827.31;;;-146.65;65.96
57094;BME280;42970;50.996;3.706;2022-09-09T12:39:27;74875.72;;;-146.65;67.51
57094;BME280;42970;50.996;3.706;2022-09-09T12:41:55;74837.38;;;-146.65;67.33
57094;BME280;42970;50.996;3.706;2022-09-09T12:44:22;74889.81;;;-146.65;68.17
57094;BME280;42970;50.996;3.706;2022-09-09T12:46:48;74942.25;;;-146.65;70.20
57094;BME280;42970;50.996;3.706;2022-09-09T12:49:32;74958.38;;;-146.65;70.62
57094;BME280;42970;50.996;3.706;2022-09-09T12:52:07;74988.66;;;-146.65;72.28
57094;BME280;42970;50.996;3.706;2022-09-09T12:54:36;75028.97;;;-146.65;73.44
57094;BME280;42970;50.996;3.706;2022-09-09T12:57:03;75031.00;;;-146.65;73.62
57094;BME280;42970;50.996;3.706;2022-09-09T12:59:37;75039.06;;;-146.65;74.84
57094;BME280;42970;50.996;3.706;2022-09-09T13:02:16;75089.47;;;-146.65;76.33
57094;BME280;42970;50.996;3.706;2022-09-09T13:04:43;75075.38;;;-146.65;76.75
57094;BME280;42970;50.996;3.706;2022-09-09T13:07:10;75057.22;;;-146.65;75.93
57094;BME280;42970;50.996;3.706;2022-09-09T13:09:37;75020.91;;;-146.65;74.07
57094;BME280;42970;50.996;3.706;2022-09-09T13:12:04;75000.75;;;-146.65;72.91
57094;BME280;42970;50.996;3.706;2022-09-09T13:14:34;74972.50;;;-146.65;70.20
57094;BME280;42970;50.996;3.706;2022-09-09T13:17:04;74994.69;;;-146.65;69.90
57094;BME280;42970;50.996;3.706;2022-09-09T13:19:34;74998.72;;;-146.65;69.94
57094;BME280;42970;50.996;3.706;2022-09-09T13:22:44;75000.75;;;-146.65;71.07
57094;BME280;42970;50.996;3.706;2022-09-09T13:27:38;74984.59;;;-146.65;70.30
57094;BME280;42970;50.996;3.706;2022-09-09T13:32:59;74968.47;;;-146.65;68.35
57094;BME280;42970;50.996;3.706;2022-09-09T13:35:27;74984.59;;;-146.65;69.14
57094;BME280;42970;50.996;3.706;2022-09-09T13:37:53;74984.59;;;-146.65;69.91
57094;BME280;42970;50.996;3.706;2022-09-09T13:40:21;75012.84;;;-146.65;68.95
57094;BME280;42970;50.996;3.706;2022-09-09T13:42:47;75037.03;;;-146.65;69.89
57094;BME280;42970;50.996;3.706;2022-09-09T13:45:18;75053.19;;;-146.65;70.90
57094;BME280;42970;50.996;3.706;2022-09-09T13:47:45;75043.09;;;-146.65;70.71
57094;BME280;42970;50.996;3.706;2022-09-09T13:50:21;75087.47;;;-146.65;74.08
57094;BME280;42970;50.996;3.706;2022-09-09T13:52:47;75152.00;;;-146.65;77.39
57094;BME280;42970;50.996;3.706;2022-09-09T13:55:14;75186.28;;;-146.65;79.88
57094;BME280;42970;50.996;3.706;2022-09-09T13:57:50;75202.44;;;-146.65;82.47
57094;BME280;42970;50.996;3.706;2022-09-09T14:00:15;75226.63;;;-146.65;84.14
57094;BME280;42970;50.996;3.706;2022-09-09T14:02:41;75246.78;;;-146.65;84.69
57094;BME280;42970;50.996;3.706;2022-09-09T14:05:06;75271.00;;;-146.65;86.13
57094;BME280;42970;50.996;3.706;2022-09-09T14:07:31;75289.16;;;-146.65;86.06
57094;BME280;42970;50.996;3.706;2022-09-09T14:09:57;75307.31;;;-146.65;87.52
57094;BME280;42970;50.996;3.706;2022-09-09T14:12:23;75335.53;;;-146.65;90.19
57094;BME280;42970;50.996;3.706;2022-09-09T14:14:49;75351.69;;;-146.65;90.89
57094;BME280;42970;50.996;3.706;2022-09-09T14:17:15;75361.75;;;-146.65;92.40
57094;BME280;42970;50.996;3.706;2022-09-09T14:19:40;75347.66;;;-146.65;93.19
57094;BME280;42970;50.996;3.706;2022-09-09T14:22:06;75309.31;;;-146.65;93.47
57094;BME280;42970;50.996;3.706;2022-09-09T14:24:31;75305.28;;;-146.65;91.10
57094;BME280;42970;50.996;3.706;2022-09-09T14:26:56;75262.94;;;-146.65;90.44
57094;BME280;42970;50.996;3.706;2022-09-09T14:29:22;75228.66;;;-146.65;90.74
57094;BME280;42970;50.996;3.706;2022-09-09T14:31:47;75238.72;;;-146.65;89.68
57094;BME280;42970;50.996;3.706;2022-09-09T14:34:13;75240.75;;;-146.65;88.38
57094;BME280;42970;50.996;3.706;2022-09-09T14:36:39;75226.63;;;-146.65;87.25
57094;BME280;42970;50.996;3.706;2022-09-09T14:39:05;75222.59;;;-146.65;85.75
57094;BME280;42970;50.996;3.706;2022-09-09T14:41:31;75218.56;;;-146.65;86.16